Humidity-temperature Sensor

Selected Measurement Type: Air Temperature

 
Air Temperature [°C]     6 entries per hour
Showing data from 10/24/2021 (00:00:00 Z) to 10/21/2021 (00:01:00 Z)
Previous Next [ Day | 3-Days | 7-Days ]
First Last
Prev [ Day | 3-Days | 7-Days ] Next
First Last

Start Time:     :
End Time:     :     
Time (in GMT) :00 :50 :40 :30 :20 :10
Previous Next [ Day | 3-Days | 7-Days ]
First Last
Prev [ Day | 3-Days | 7-Days ] Next
First Last


123 => good data
MM => data is determined as missing
-- => data not received/configured
Back to Top Back to Top
10/24/2021 00:00 to 23:10 23.29 23.22 23.20 23.40 23.18 23.41
10/23/2021 23:00 to 22:10 23.21 23.37 23.09 23.17 23.22 23.34
10/23/2021 22:00 to 21:10 23.43 23.43 23.30 23.38 23.45 23.23
10/23/2021 21:00 to 20:10 23.33 23.43 23.17 23.18 23.34 23.29
10/23/2021 20:00 to 19:10 23.25 22.97 22.99 23.07 23.09 23.13
10/23/2021 19:00 to 18:10 23.06 23.05 22.83 22.98 22.99 23.05
10/23/2021 18:00 to 17:10 23.05 22.96 23.19 23.20 23.25 22.95
10/23/2021 17:00 to 16:10 22.96 23.08 23.00 23.10 23.04 23.06
10/23/2021 16:00 to 15:10 22.87 23.20 23.02 22.97 22.71 22.35
10/23/2021 15:00 to 14:10 22.00 21.70 21.43 21.13 21.86 22.79
10/23/2021 14:00 to 13:10 22.87 22.81 22.54 22.66 22.69 22.84
10/23/2021 13:00 to 12:10 23.41 23.26 23.28 23.51 23.54 23.34
10/23/2021 12:00 to 11:10 22.95 22.89 22.57 22.86 22.74 22.63
10/23/2021 11:00 to 10:10 22.49 22.98 22.55 22.34 22.16 22.21
10/23/2021 10:00 to 9:10 22.31 22.18 22.44 22.62 23.38 23.15
10/23/2021 09:00 to 8:10 22.94 23.08 23.15 23.05 23.01 22.96
10/23/2021 08:00 to 7:10 22.95 23.03 23.04 23.08 22.90 23.06
10/23/2021 07:00 to 6:10 22.95 22.98 23.11 23.03 22.83 22.84
10/23/2021 06:00 to 5:10 22.93 23.01 23.07 23.06 23.26 23.09
10/23/2021 05:00 to 4:10 23.21 23.10 23.13 23.20 23.17 23.14
10/23/2021 04:00 to 3:10 23.15 23.20 23.06 23.06 22.99 23.33
10/23/2021 03:00 to 2:10 23.04 22.98 22.87 23.03 23.13 23.15
10/23/2021 02:00 to 1:10 23.21 23.06 23.14 23.07 23.25 23.21
10/23/2021 01:00 to 0:10 23.31 23.32 23.34 23.25 23.33 23.36
10/23/2021 00:00 to 23:10 23.52 23.49 23.56 23.54 23.45 23.38
10/22/2021 23:00 to 22:10 23.58 23.28 23.23 23.22 23.22 23.26
10/22/2021 22:00 to 21:10 23.36 23.25 23.20 23.10 23.37 23.42
10/22/2021 21:00 to 20:10 23.36 23.20 23.42 23.30 23.23 23.35
10/22/2021 20:00 to 19:10 23.33 23.10 23.15 23.07 23.14 23.23
10/22/2021 19:00 to 18:10 23.10 22.93 22.82 22.84 22.82 22.89
10/22/2021 18:00 to 17:10 22.92 22.85 22.84 23.20 23.20 23.41
10/22/2021 17:00 to 16:10 23.52 23.48 23.40 23.40 23.75 23.62
10/22/2021 16:00 to 15:10 23.71 23.78 23.45 23.47 23.11 22.89
10/22/2021 15:00 to 14:10 23.24 23.13 22.85 22.90 23.03 23.06
10/22/2021 14:00 to 13:10 23.16 23.01 23.10 23.18 23.28 23.04
10/22/2021 13:00 to 12:10 22.34 22.04 22.14 22.14 22.60 23.35
10/22/2021 12:00 to 11:10 23.04 22.90 22.96 22.78 22.79 23.00
10/22/2021 11:00 to 10:10 23.02 22.87 22.56 22.78 22.78 22.73
10/22/2021 10:00 to 9:10 22.76 22.72 22.64 22.76 22.82 22.80
10/22/2021 09:00 to 8:10 22.26 22.47 22.58 22.48 22.65 22.40
10/22/2021 08:00 to 7:10 22.58 22.87 22.85 22.95 22.95 23.00
10/22/2021 07:00 to 6:10 22.93 23.00 23.08 23.05 23.08 23.29
10/22/2021 06:00 to 5:10 22.99 23.04 23.14 23.01 23.15 23.11
10/22/2021 05:00 to 4:10 23.07 23.06 23.08 22.97 23.02 23.21
10/22/2021 04:00 to 3:10 23.18 23.10 23.15 23.07 23.15 23.00
10/22/2021 03:00 to 2:10 22.96 23.07 23.15 23.04 23.23 23.34
10/22/2021 02:00 to 1:10 23.19 22.94 22.69 22.75 23.09 23.17
10/22/2021 01:00 to 0:10 23.19 23.26 23.37 23.36 23.29 23.22
10/22/2021 00:00 to 23:10 23.22 22.92 22.93 22.99 23.11 23.22
10/21/2021 23:00 to 22:10 23.10 23.24 23.19 23.10 23.11 23.18
10/21/2021 22:00 to 21:10 23.13 23.07 23.23 23.15 23.18 23.11
10/21/2021 21:00 to 20:10 23.12 23.21 23.04 22.99 23.20 23.11
10/21/2021 20:00 to 19:10 23.22 23.11 23.19 23.22 23.25 23.14
10/21/2021 19:00 to 18:10 23.14 23.10 23.26 23.31 23.24 23.31
10/21/2021 18:00 to 17:10 23.19 23.10 23.24 23.11 23.21 23.14
10/21/2021 17:00 to 16:10 23.28 23.36 23.14 23.21 23.16 23.20
10/21/2021 16:00 to 15:10 23.18 23.18 23.10 23.21 23.23 23.25
10/21/2021 15:00 to 14:10 23.20 23.27 23.14 23.01 23.14 22.96
10/21/2021 14:00 to 13:10 22.96 22.90 22.93 23.00 22.87 22.92
10/21/2021 13:00 to 12:10 22.94 22.87 22.94 22.82 22.92 22.78
10/21/2021 12:00 to 11:10 22.94 22.95 22.87 22.57 22.83 22.72
10/21/2021 11:00 to 10:10 22.74 22.64 22.57 22.63 22.74 22.83
10/21/2021 10:00 to 9:10 22.73 22.77 22.99 22.89 22.87 22.83
10/21/2021 09:00 to 8:10 22.77 22.90 22.88 22.80 22.77 22.78
10/21/2021 08:00 to 7:10 22.85 22.87 22.80 22.83 22.87 22.99
10/21/2021 07:00 to 6:10 22.98 22.99 22.88 22.97 23.07 22.94
10/21/2021 06:00 to 5:10 23.02 22.96 23.00 23.02 23.20 23.01
10/21/2021 05:00 to 4:10 23.08 23.03 23.13 22.96 23.01 23.04
10/21/2021 04:00 to 3:10 23.12 23.12 23.06 23.10 23.17 23.07
10/21/2021 03:00 to 2:10 23.17 23.20 23.07 23.07 23.15 23.21
10/21/2021 02:00 to 1:10 23.20 23.06 23.07 23.05 23.18 23.04
10/21/2021 01:00 to 0:10 23.18 23.36 23.25 23.12 23.30 23.34